Time;durP1;ratioP1;P1;durP2;ratioP2;P2;SDS_P1;SDS_P2;PMS_P1;PMS_P2;Temp;Humidity;BMP_temperature;BMP_pressure;BME280_temperature;BME280_humidity;BME280_pressure;Samples;Min_cycle;Max_cycle;Signal;HPM_P1;HPM_P2
2023/02/06 00:01:35;;;;;;;;;;;;;;;0.83;100.00;66871.84;5048539;28;19921;-85
2023/02/06 00:04:00;;;;;;;;;;;;;;;0.72;100.00;66858.91;5046531;28;19972;-83
2023/02/06 00:06:25;;;;;;;;;;;;;;;;;;5045966;28;19925;-83
2023/02/06 00:08:51;;;;;;;;;;;;;;;0.73;100.00;66855.34;5048532;28;19971;-85
2023/02/06 00:11:16;;;;;;;;;;;;;;;;;;5049021;28;19921;-85
2023/02/06 00:13:42;;;;;;;;;;;;;;;0.62;100.00;66848.22;5052395;28;19928;-86
2023/02/06 00:16:27;;;;;;;;;;;;;;;0.64;100.00;66850.47;5048643;28;20369;-85
2023/02/06 00:18:53;;;;;;;;;;;;;;;0.69;100.00;66856.09;5062166;28;19921;-84
2023/02/06 00:21:20;;;;;;;;;;;;;;;0.69;100.00;66861.31;5046339;28;19975;-85
2023/02/06 00:23:46;;;;;;;;;;;;;;;0.69;100.00;66856.09;5048761;28;19920;-84
2023/02/06 00:26:11;;;;;;;;;;;;;;;;;;5048353;28;19936;-84
2023/02/06 00:28:36;;;;;;;;;;;;;;;0.75;100.00;66862.84;5047320;28;21033;-84
2023/02/06 00:31:04;;;;;;;;;;;;;;;0.80;100.00;66867.91;5048652;28;20019;-84
2023/02/06 00:33:29;;;;;;;;;;;;;;;0.73;100.00;66865.28;5045977;28;19967;-83
2023/02/06 00:35:54;;;;;;;;;;;;;;;0.73;100.00;66855.34;5044826;28;20024;-85
2023/02/06 00:38:19;;;;;;;;;;;;;;;0.73;100.00;66860.03;5046514;28;19967;-84
2023/02/06 00:40:45;;;;;;;;;;;;;;;;;;5047084;28;19944;-84
2023/02/06 00:43:10;;;;;;;;;;;;;;;0.61;100.00;66847.09;5047623;28;19924;-84
2023/02/06 00:45:35;;;;;;;;;;;;;;;0.59;100.00;66845.41;5042977;28;20457;-84
2023/02/06 00:48:00;;;;;;;;;;;;;;;0.62;100.00;66848.78;5046812;28;19929;-83
2023/02/06 00:50:25;;;;;;;;;;;;;;;0.62;100.00;66854.03;5045458;28;19920;-83
2023/02/06 00:52:51;;;;;;;;;;;;;;;0.59;100.00;66850.09;5045659;28;19925;-85
2023/02/06 00:55:16;;;;;;;;;;;;;;;0.59;100.00;66848.03;5045792;28;19920;-85
2023/02/06 00:57:41;;;;;;;;;;;;;;;;;;5039378;28;19925;-84
2023/02/06 01:00:07;;;;;;;;;;;;;;;0.59;100.00;66839.63;5047971;28;20026;-83
2023/02/06 01:02:32;;;;;;;;;;;;;;;0.61;100.00;66847.66;5046598;28;20018;-84
2023/02/06 01:04:58;;;;;;;;;;;;;;;0.58;100.00;66844.28;5044242;28;19987;-84
2023/02/06 01:07:23;;;;;;;;;;;;;;;0.59;100.00;66845.41;5046257;28;19927;-82
2023/02/06 01:09:48;;;;;;;;;;;;;;;0.63;100.00;66852.53;5045786;28;19975;-83
2023/02/06 01:12:13;;;;;;;;;;;;;;;0.70;100.00;66859.28;5047711;28;19917;-85
2023/02/06 01:14:39;;;;;;;;;;;;;;;0.66;100.00;66855.91;5039130;28;19925;-83
2023/02/06 01:17:04;;;;;;;;;;;;;;;0.65;100.00;66852.16;5048818;28;19928;-83
2023/02/06 01:19:29;;;;;;;;;;;;;;;;;;5049158;28;19920;-84
2023/02/06 01:21:54;;;;;;;;;;;;;;;;;;5049459;28;19921;-82
2023/02/06 01:24:19;;;;;;;;;;;;;;;;;;5048067;28;19923;-84
2023/02/06 01:26:44;;;;;;;;;;;;;;;0.58;100.00;66843.72;5049692;28;20007;-83
2023/02/06 01:29:10;;;;;;;;;;;;;;;0.50;100.00;66837.34;5042090;28;19917;-83
2023/02/06 01:31:35;;;;;;;;;;;;;;;;;;5049531;28;19916;-82
2023/02/06 01:34:00;;;;;;;;;;;;;;;0.49;100.00;66834.16;5050150;28;20420;-84
2023/02/06 01:36:26;;;;;;;;;;;;;;;0.49;100.00;66836.22;5048451;28;19978;-83
2023/02/06 01:38:51;;;;;;;;;;;;;;;0.50;100.00;66837.91;5050176;28;19917;-84
2023/02/06 01:41:16;;;;;;;;;;;;;;;;;;5048691;28;19918;-84
2023/02/06 01:43:46;;;;;;;;;;;;;;;0.36;100.00;66819.53;5049027;28;19929;-84
2023/02/06 01:46:12;;;;;;;;;;;;;;;0.37;100.00;66820.66;5048755;28;19967;-83
2023/02/06 01:48:37;;;;;;;;;;;;;;;;;;5048585;28;19920;-83
2023/02/06 01:51:03;;;;;;;;;;;;;;;0.23;100.00;66805.47;5046189;28;19946;-84
2023/02/06 01:53:29;;;;;;;;;;;;;;;0.26;100.00;66810.91;5049340;28;19925;-85
2023/02/06 01:55:55;;;;;;;;;;;;;;;0.29;100.00;66811.66;5049484;28;19924;-85
2023/02/06 01:58:26;;;;;;;;;;;;;;;0.26;100.00;66808.28;5050108;28;19948;-84
2023/02/06 02:00:52;;;;;;;;;;;;;;;0.26;100.00;66810.91;5047654;28;19917;-84
2023/02/06 02:03:17;;;;;;;;;;;;;;;0.19;100.00;66804.16;5048684;28;20374;-84
2023/02/06 02:05:44;;;;;;;;;;;;;;;0.20;100.00;66802.09;5046521;28;19924;-83
2023/02/06 02:08:16;;;;;;;;;;;;;;;0.22;100.00;66804.91;5049489;28;19917;-84
2023/02/06 02:10:42;;;;;;;;;;;;;;;0.11;100.00;66792.53;5043724;28;19925;-85
2023/02/06 02:13:08;;;;;;;;;;;;;;;0.02;100.00;66776.63;5049753;28;19917;-83
2023/02/06 02:15:56;;;;;;;;;;;;;;;-0.10;100.00;66772.13;5048750;28;19917;-84
2023/02/06 02:18:33;;;;;;;;;;;;;;;-0.12;100.00;66766.69;5048081;28;19978;-83
2023/02/06 02:20:59;;;;;;;;;;;;;;;-0.13;100.00;66766.13;5049910;28;19921;-84
2023/02/06 02:23:30;;;;;;;;;;;;;;;-0.07;100.00;66772.31;5047912;28;19923;-85
2023/02/06 02:26:01;;;;;;;;;;;;;;;0.00;100.00;66774.97;5049223;28;19917;-84
2023/02/06 02:28:39;;;;;;;;;;;;;;;-0.09;100.00;66770.63;5064026;28;20030;-85
2023/02/06 02:31:07;;;;;;;;;;;;;;;-0.19;100.00;66762.00;5040125;28;19917;-85
2023/02/06 02:33:45;;;;;;;;;;;;;;;-0.21;100.00;66759.75;5053841;28;19917;-85
2023/02/06 02:36:29;;;;;;;;;;;;;;;-0.18;100.00;66763.13;5052925;28;19925;-83
2023/02/06 02:39:10;;;;;;;;;;;;;;;-0.26;100.00;66751.50;5066247;28;20523;-82
2023/02/06 02:41:35;;;;;;;;;;;;;;;;;;5052352;28;19916;-82
2023/02/06 02:44:00;;;;;;;;;;;;;;;;;;5051582;28;20003;-83
2023/02/06 02:46:37;;;;;;;;;;;;;;;-0.50;100.00;66728.28;5052741;28;19952;-82
2023/02/06 02:49:04;;;;;;;;;;;;;;;-0.46;100.00;66730.16;5052230;28;19924;-82
2023/02/06 02:51:31;;;;;;;;;;;;;;;-0.37;100.00;66739.72;5051509;28;19924;-83
2023/02/06 02:53:56;;;;;;;;;;;;;;;;;;5052697;28;19972;-82
2023/02/06 02:56:22;;;;;;;;;;;;;;;-0.21;100.00;66759.75;5049774;28;20420;-85
2023/02/06 02:58:52;;;;;;;;;;;;;;;-0.11;100.00;66762.59;5048726;28;20008;-83
2023/02/06 03:01:19;;;;;;;;;;;;;;;-0.10;100.00;66768.94;5048503;28;19927;-87
2023/02/06 03:03:46;;;;;;;;;;;;;;;-0.06;100.00;66773.44;5049162;28;20443;-84
2023/02/06 03:06:17;;;;;;;;;;;;;;;-0.02;100.00;66781.09;5048641;28;20507;-82
2023/02/06 03:08:42;;;;;;;;;;;;;;;;;;5048049;28;20015;-85
2023/02/06 03:11:18;;;;;;;;;;;;;;;0.00;100.00;66785.41;5050458;28;19999;-84
2023/02/06 03:13:49;;;;;;;;;;;;;;;0.14;100.00;66797.97;5049301;28;19947;-85
2023/02/06 03:16:21;;;;;;;;;;;;;;;0.24;100.00;66806.59;5046394;28;19921;-84
2023/02/06 03:18:54;;;;;;;;;;;;;;;0.24;100.00;66806.59;5049203;28;19921;-85
2023/02/06 03:21:20;;;;;;;;;;;;;;;0.21;100.00;66803.22;5048798;28;20410;-84
2023/02/06 03:23:48;;;;;;;;;;;;;;;0.27;100.00;66815.22;5047580;28;19994;-82
2023/02/06 03:26:15;;;;;;;;;;;;;;;0.27;100.00;66809.97;5047356;28;20029;-83
2023/02/06 03:28:51;;;;;;;;;;;;;;;0.21;100.00;66803.22;5049198;28;19921;-85
2023/02/06 03:31:20;;;;;;;;;;;;;;;0.24;100.00;66808.66;5047878;28;19921;-84
2023/02/06 03:33:50;;;;;;;;;;;;;;;0.19;100.00;66804.16;5046630;28;19952;-83
2023/02/06 03:36:17;;;;;;;;;;;;;;;0.21;100.00;66803.78;5047169;28;20003;-82
2023/02/06 03:38:44;;;;;;;;;;;;;;;0.20;100.00;66804.72;5047167;28;20003;-83
2023/02/06 03:41:11;;;;;;;;;;;;;;;0.14;100.00;66795.91;5048748;28;20428;-82
2023/02/06 03:43:37;;;;;;;;;;;;;;;0.13;100.00;66797.41;5042461;28;20425;-83
2023/02/06 03:46:04;;;;;;;;;;;;;;;0.17;100.00;66801.91;5043056;28;19921;-83
2023/02/06 03:48:33;;;;;;;;;;;;;;;0.24;100.00;66806.03;5049049;28;19955;-82
2023/02/06 03:51:01;;;;;;;;;;;;;;;0.27;100.00;66809.41;5048631;28;19936;-84
2023/02/06 03:53:26;;;;;;;;;;;;;;;;;;5048089;28;19948;-83
2023/02/06 03:55:55;;;;;;;;;;;;;;;0.28;100.00;66813.72;5049318;28;19925;-84
2023/02/06 03:58:20;;;;;;;;;;;;;;;0.27;100.00;66809.41;5048320;28;19925;-83
2023/02/06 04:00:46;;;;;;;;;;;;;;;0.30;100.00;66813.34;5048558;28;20027;-84
2023/02/06 04:03:13;;;;;;;;;;;;;;;0.23;100.00;66808.09;5046746;28;19955;-84
2023/02/06 04:05:40;;;;;;;;;;;;;;;0.20;100.00;66805.28;5046925;28;19924;-82
2023/02/06 04:08:06;;;;;;;;;;;;;;;0.29;100.00;66814.28;5047171;28;19927;-82
2023/02/06 04:10:31;;;;;;;;;;;;;;;0.27;100.00;66809.97;5049387;28;20309;-82
2023/02/06 04:12:59;;;;;;;;;;;;;;;0.22;100.00;66804.91;5048257;28;20532;-85
2023/02/06 04:15:25;;;;;;;;;;;;;;;0.20;100.00;66802.09;5046863;28;19974;-84
2023/02/06 04:17:53;;;;;;;;;;;;;;;0.18;100.00;66794.63;5043534;28;19929;-83
2023/02/06 04:20:18;;;;;;;;;;;;;;;0.19;100.00;66806.78;5042394;28;19932;-84
2023/02/06 04:22:43;;;;;;;;;;;;;;;0.16;100.00;66798.16;5047087;28;19920;-83
2023/02/06 04:25:09;;;;;;;;;;;;;;;0.16;100.00;66798.16;5047230;28;19958;-83
2023/02/06 04:27:34;;;;;;;;;;;;;;;0.15;100.00;66796.50;5048760;28;19925;-83
2023/02/06 04:30:00;;;;;;;;;;;;;;;0.15;100.00;66799.09;5047633;28;20370;-82
2023/02/06 04:32:25;;;;;;;;;;;;;;;0.12;100.00;66796.28;5048257;28;19924;-82
2023/02/06 04:34:50;;;;;;;;;;;;;;;0.15;100.00;66799.09;5033180;28;19925;-84
2023/02/06 04:37:16;;;;;;;;;;;;;;;0.15;100.00;66797.06;5046961;28;19929;-82
2023/02/06 04:39:41;;;;;;;;;;;;;;;0.24;100.00;66806.59;5047595;28;19940;-82
2023/02/06 04:42:06;;;;;;;;;;;;;;;0.19;100.00;66801.53;5047040;28;19963;-82
2023/02/06 04:44:32;;;;;;;;;;;;;;;0.15;100.00;66796.50;5047735;28;19921;-82
2023/02/06 04:46:58;;;;;;;;;;;;;;;0.14;100.00;66795.91;5047837;28;19951;-83
2023/02/06 04:49:23;;;;;;;;;;;;;;;0.08;100.00;66789.16;5048550;28;19921;-83
2023/02/06 04:51:48;;;;;;;;;;;;;;;0.13;100.00;66794.25;5046977;28;19927;-84
2023/02/06 04:54:16;;;;;;;;;;;;;;;0.17;100.00;66799.31;5046520;28;19946;-83
2023/02/06 04:56:41;;;;;;;;;;;;;;;0.17;100.00;66799.31;5043484;28;20327;-84
2023/02/06 04:59:06;;;;;;;;;;;;;;;;;;5047349;28;19921;-82
2023/02/06 05:01:32;;;;;;;;;;;;;;;0.14;100.00;66795.91;5047755;28;19974;-83
2023/02/06 05:03:57;;;;;;;;;;;;;;;0.03;100.00;66783.56;5048898;28;20278;-85
2023/02/06 05:06:22;;;;;;;;;;;;;;;-0.02;100.00;66772.69;5047517;28;19920;-82
2023/02/06 05:08:48;;;;;;;;;;;;;;;-0.02;100.00;66781.09;5042176;28;19927;-83
2023/02/06 05:11:13;;;;;;;;;;;;;;;0.00;100.00;66780.19;5048621;28;19921;-83
2023/02/06 05:13:38;;;;;;;;;;;;;;;0.00;100.00;66782.81;5045095;28;19928;-83
2023/02/06 05:16:08;;;;;;;;;;;;;;;-0.03;100.00;66776.78;5050196;28;19921;-83
2023/02/06 05:18:36;;;;;;;;;;;;;;;;;;5047470;28;19924;-83
2023/02/06 05:21:01;;;;;;;;;;;;;;;0.06;100.00;66788.97;5041811;28;20014;-83
2023/02/06 05:23:27;;;;;;;;;;;;;;;;;;5045063;28;19929;-82
2023/02/06 05:25:52;;;;;;;;;;;;;;;;;;5044094;28;19921;-83
2023/02/06 05:28:17;;;;;;;;;;;;;;;0.04;100.00;66784.69;5046841;28;19925;-83
2023/02/06 05:30:43;;;;;;;;;;;;;;;0.07;100.00;66788.06;5045512;28;19921;-83
2023/02/06 05:33:08;;;;;;;;;;;;;;;;;;5038218;28;20333;-84
2023/02/06 05:35:33;;;;;;;;;;;;;;;0.11;100.00;66786.75;5049821;28;20560;-83
2023/02/06 05:37:58;;;;;;;;;;;;;;;;;;5043606;28;20394;-84
2023/02/06 05:40:24;;;;;;;;;;;;;;;-0.02;100.00;66772.69;5043330;28;19983;-82
2023/02/06 05:42:49;;;;;;;;;;;;;;;0.01;100.00;66781.31;5043892;28;20047;-84
2023/02/06 05:45:14;;;;;;;;;;;;;;;-0.10;100.00;66768.94;5045979;28;19925;-84
2023/02/06 05:47:39;;;;;;;;;;;;;;;-0.12;100.00;66761.44;5047251;28;19927;-84
2023/02/06 05:50:05;;;;;;;;;;;;;;;-0.07;100.00;66775.47;5042419;28;19921;-84
2023/02/06 05:52:30;;;;;;;;;;;;;;;-0.13;100.00;66766.13;5050946;28;20224;-83
2023/02/06 05:54:55;;;;;;;;;;;;;;;-0.18;100.00;66759.94;5046548;28;19932;-83
2023/02/06 05:57:20;;;;;;;;;;;;;;;-0.14;100.00;66764.44;5045018;28;19933;-84
2023/02/06 05:59:46;;;;;;;;;;;;;;;-0.15;100.00;66763.88;5047004;28;20054;-83
2023/02/06 06:02:11;;;;;;;;;;;;;;;-0.14;100.00;66764.44;5046766;28;20014;-83
2023/02/06 06:04:36;;;;;;;;;;;;;;;-0.22;100.00;66758.06;5046614;28;19928;-83
2023/02/06 06:07:01;;;;;;;;;;;;;;;;;;5045346;28;20293;-83
2023/02/06 06:09:27;;;;;;;;;;;;;;;-0.22;100.00;66760.69;5045634;28;19928;-82
2023/02/06 06:11:52;;;;;;;;;;;;;;;-0.22;100.00;66756.00;5046177;28;19928;-83
2023/02/06 06:14:17;;;;;;;;;;;;;;;-0.26;100.00;66754.69;5046604;28;20302;-83
2023/02/06 06:16:42;;;;;;;;;;;;;;;-0.22;100.00;66755.44;5044321;28;19932;-82
2023/02/06 06:19:07;;;;;;;;;;;;;;;-0.17;100.00;66766.28;5046921;28;20378;-83
2023/02/06 06:21:33;;;;;;;;;;;;;;;-0.26;100.00;66757.31;5046732;28;20405;-83
2023/02/06 06:23:58;;;;;;;;;;;;;;;-0.33;100.00;66749.44;5046080;28;19982;-82
2023/02/06 06:26:24;;;;;;;;;;;;;;;-0.28;100.00;66752.44;5048354;28;20406;-82
2023/02/06 06:28:49;;;;;;;;;;;;;;;-0.21;100.00;66756.56;5043814;28;19986;-83
2023/02/06 06:31:14;;;;;;;;;;;;;;;-0.17;100.00;66761.06;5049173;28;19917;-83
2023/02/06 06:33:40;;;;;;;;;;;;;;;-0.21;100.00;66757.13;5049054;28;19988;-82
2023/02/06 06:36:05;;;;;;;;;;;;;;;-0.25;100.00;66752.63;5043581;28;19924;-82
2023/02/06 06:38:31;;;;;;;;;;;;;;;-0.27;100.00;66753.00;5048200;28;19925;-82
2023/02/06 06:40:56;;;;;;;;;;;;;;;-0.23;100.00;66749.66;5049504;28;19916;-83
2023/02/06 06:43:21;;;;;;;;;;;;;;;-0.30;100.00;66747.56;5049242;28;20489;-83
2023/02/06 06:45:46;;;;;;;;;;;;;;;-0.29;100.00;66748.13;5048864;28;19924;-82
2023/02/06 06:48:12;;;;;;;;;;;;;;;-0.25;100.00;66757.88;5049169;28;19965;-82
2023/02/06 06:50:37;;;;;;;;;;;;;;;-0.29;100.00;66753.38;5047648;28;19975;-83
2023/02/06 06:53:03;;;;;;;;;;;;;;;-0.31;100.00;66748.50;5049752;28;20455;-82
2023/02/06 06:55:28;;;;;;;;;;;;;;;-0.27;100.00;66750.94;5044715;28;20010;-82
2023/02/06 06:57:53;;;;;;;;;;;;;;;-0.25;100.00;66753.19;5038476;28;19921;-82
2023/02/06 07:00:19;;;;;;;;;;;;;;;-0.34;100.00;66743.09;5050020;28;19972;-82
2023/02/06 07:02:44;;;;;;;;;;;;;;;-0.33;100.00;66744.19;5048703;28;19924;-83
2023/02/06 07:05:09;;;;;;;;;;;;;;;-0.35;100.00;66741.38;5048256;28;19921;-83
2023/02/06 07:07:34;;;;;;;;;;;;;;;-0.27;100.00;66750.94;5048564;28;19917;-82
2023/02/06 07:09:59;;;;;;;;;;;;;;;;;;5049396;28;19941;-82
2023/02/06 07:12:25;;;;;;;;;;;;;;;-0.27;100.00;66753.56;5048648;28;19925;-82
2023/02/06 07:14:50;;;;;;;;;;;;;;;-0.26;100.00;66754.13;5052444;28;20294;-83
2023/02/06 07:17:15;;;;;;;;;;;;;;;-0.30;100.00;66750.19;5055828;28;19927;-83
2023/02/06 07:19:41;;;;;;;;;;;;;;;-0.26;100.00;66754.13;5062725;28;20370;-83
2023/02/06 07:22:06;;;;;;;;;;;;;;;-0.30;100.00;66750.19;5051795;28;19921;-83
2023/02/06 07:24:31;;;;;;;;;;;;;;;;;;5052386;28;20038;-83
2023/02/06 07:26:56;;;;;;;;;;;;;;;-0.24;100.00;66754.31;5052442;28;20459;-83
2023/02/06 07:29:21;;;;;;;;;;;;;;;;;;5051652;28;20404;-82
2023/02/06 07:31:47;;;;;;;;;;;;;;;-0.20;100.00;66760.31;5051793;28;20338;-82
2023/02/06 07:34:12;;;;;;;;;;;;;;;-0.14;100.00;66767.06;5051489;28;19916;-82
2023/02/06 07:36:37;;;;;;;;;;;;;;;;;;5050123;28;19921;-82
2023/02/06 07:39:03;;;;;;;;;;;;;;;-0.19;100.00;66758.81;5051885;28;19916;-82
2023/02/06 07:41:28;;;;;;;;;;;;;;;-0.18;100.00;66755.28;5042452;28;20398;-82
2023/02/06 07:43:53;;;;;;;;;;;;;;;;;;5050624;28;19928;-82
2023/02/06 07:46:19;;;;;;;;;;;;;;;-0.14;100.00;66767.06;5049464;28;20503;-82
2023/02/06 07:48:44;;;;;;;;;;;;;;;-0.17;100.00;66761.06;5046368;28;19916;-82
2023/02/06 07:51:09;;;;;;;;;;;;;;;-0.11;100.00;66771.00;5051013;28;20011;-83
2023/02/06 07:53:35;;;;;;;;;;;;;;;-0.12;100.00;66767.25;5051057;28;19928;-83
2023/02/06 07:56:01;;;;;;;;;;;;;;;-0.05;100.00;66779.78;5050535;28;20479;-83
2023/02/06 07:58:26;;;;;;;;;;;;;;;;;;5050734;28;19928;-82
2023/02/06 08:00:53;;;;;;;;;;;;;;;;;;5050153;28;20621;-83
2023/02/06 08:03:19;;;;;;;;;;;;;;;-0.03;100.00;66779.41;5050578;28;19917;-82
2023/02/06 08:05:44;;;;;;;;;;;;;;;-0.05;100.00;66777.19;5049477;28;19928;-83
2023/02/06 08:08:10;;;;;;;;;;;;;;;-0.03;100.00;66776.78;5050822;28;19917;-82
2023/02/06 08:10:37;;;;;;;;;;;;;;;0.04;100.00;66787.28;5050075;28;19920;-83
2023/02/06 08:13:02;;;;;;;;;;;;;;;;;;5046522;28;20319;-82
2023/02/06 08:15:27;;;;;;;;;;;;;;;0.11;100.00;66794.59;5048034;28;20337;-83
2023/02/06 08:17:52;;;;;;;;;;;;;;;;;;5045502;28;20737;-82
2023/02/06 08:20:18;;;;;;;;;;;;;;;0.16;100.00;66798.16;5046716;28;19925;-83
2023/02/06 08:22:43;;;;;;;;;;;;;;;;;;5047288;28;19920;-82
2023/02/06 08:25:08;;;;;;;;;;;;;;;0.19;100.00;66801.53;5046579;28;19921;-82
2023/02/06 08:27:33;;;;;;;;;;;;;;;0.17;100.00;66801.91;5048217;28;19916;-83
2023/02/06 08:29:59;;;;;;;;;;;;;;;;;;5049123;28;19921;-83
2023/02/06 08:32:31;;;;;;;;;;;;;;;0.29;100.00;66816.88;5052102;28;19924;-83
2023/02/06 08:34:56;;;;;;;;;;;;;;;0.39;100.00;66828.16;5047592;28;19928;-83
2023/02/06 08:37:22;;;;;;;;;;;;;;;0.36;100.00;66820.09;5049842;28;19924;-84
2023/02/06 08:39:48;;;;;;;;;;;;;;;0.44;100.00;66828.53;5050356;28;19921;-84
2023/02/06 08:42:13;;;;;;;;;;;;;;;0.45;100.00;66834.91;5048762;28;20031;-83
2023/02/06 08:44:38;;;;;;;;;;;;;;;;;;5048648;28;19927;-84
2023/02/06 08:47:03;;;;;;;;;;;;;;;;;;5048978;28;20019;-84
2023/02/06 08:49:29;;;;;;;;;;;;;;;0.61;100.00;66849.72;5049841;28;19921;-83
2023/02/06 08:51:56;;;;;;;;;;;;;;;0.63;100.00;66849.91;5048745;28;20652;-83
2023/02/06 08:54:22;;;;;;;;;;;;;;;0.69;100.00;66856.09;5049038;28;20568;-83
2023/02/06 08:56:47;;;;;;;;;;;;;;;0.70;100.00;66859.28;5048663;28;19937;-83
2023/02/06 08:59:14;;;;;;;;;;;;;;;0.67;100.00;66854.41;5046745;28;19921;-84
2023/02/06 09:01:39;;;;;;;;;;;;;;;;;;5048488;28;20005;-84
2023/02/06 09:04:05;;;;;;;;;;;;;;;0.80;100.00;66868.47;5049503;28;19952;-84
2023/02/06 09:06:31;;;;;;;;;;;;;;;;;;5045777;28;19927;-84
2023/02/06 09:08:56;;;;;;;;;;;;;;;1.08;100.00;66902.03;5048353;28;20004;-84
2023/02/06 09:11:21;;;;;;;;;;;;;;;;;;5049431;28;20305;-84
2023/02/06 09:13:47;;;;;;;;;;;;;;;1.26;100.00;66921.16;5046651;28;19921;-84
2023/02/06 09:16:13;;;;;;;;;;;;;;;1.22;100.00;66914.06;5046276;28;19927;-84
2023/02/06 09:18:39;;;;;;;;;;;;;;;1.31;100.00;66927.38;5039060;28;19971;-84
2023/02/06 09:21:12;;;;;;;;;;;;;;;1.35;100.00;66931.28;5048415;28;19924;-84
2023/02/06 09:23:38;;;;;;;;;;;;;;;1.42;100.00;66930.75;5049856;28;20382;-84
2023/02/06 09:26:03;;;;;;;;;;;;;;;1.46;100.00;66941.06;5047264;28;19927;-83
2023/02/06 09:28:29;;;;;;;;;;;;;;;1.62;100.00;66957.97;5048416;28;19920;-84
2023/02/06 09:30:54;;;;;;;;;;;;;;;1.67;100.00;66958.34;5047687;28;19931;-84
2023/02/06 09:33:20;;;;;;;;;;;;;;;1.71;100.00;66968.09;5047608;28;20133;-84
2023/02/06 09:35:45;;;;;;;;;;;;;;;;;;5044818;28;19951;-84
2023/02/06 09:38:10;;;;;;;;;;;;;;;1.93;100.00;66992.88;5046087;28;19932;-84
2023/02/06 09:40:35;;;;;;;;;;;;;;;1.88;100.00;66987.25;5043722;28;19921;-84
2023/02/06 09:43:02;;;;;;;;;;;;;;;1.91;100.00;66990.06;5048182;28;19937;-84
2023/02/06 09:45:28;;;;;;;;;;;;;;;1.96;100.00;66996.25;5044419;28;19944;-84
2023/02/06 09:47:53;;;;;;;;;;;;;;;;;;5046283;28;19974;-84
2023/02/06 09:50:39;;;;;;;;;;;;;;;2.17;100.00;67018.78;5047095;28;19955;-84
2023/02/06 09:53:04;;;;;;;;;;;;;;;;;;5041797;28;20293;-84
2023/02/06 09:55:52;;;;;;;;;;;;;;;2.49;100.00;67049.56;5047038;28;19928;-84
2023/02/06 09:58:37;;;;;;;;;;;;;;;2.43;100.00;67048.06;5030429;28;19932;-84
2023/02/06 10:01:11;;;;;;;;;;;;;;;2.49;100.00;67054.28;5045426;28;19971;-84
2023/02/06 10:03:39;;;;;;;;;;;;;;;2.56;100.00;67061.59;5042689;28;19944;-83
2023/02/06 10:06:13;;;;;;;;;;;;;;;2.71;100.00;67073.25;5045602;28;19920;-83
2023/02/06 10:08:38;;;;;;;;;;;;;;;;;;5046231;28;19921;-84
2023/02/06 10:11:03;;;;;;;;;;;;;;;;;;5046589;28;19944;-84
2023/02/06 10:13:29;;;;;;;;;;;;;;;2.81;100.00;67089.78;5047168;28;19917;-83
2023/02/06 10:15:54;;;;;;;;;;;;;;;;;;5043769;28;19982;-83
2023/02/06 10:18:34;;;;;;;;;;;;;;;2.96;100.00;67105.56;5047552;28;20393;-84
2023/02/06 10:21:17;;;;;;;;;;;;;;;2.97;100.00;67109.31;5058604;28;19956;-83
2023/02/06 10:23:43;;;;;;;;;;;;;;;3.06;100.00;67117.41;5043868;28;19917;-84
2023/02/06 10:26:16;;;;;;;;;;;;;;;3.01;100.00;67111.19;5046406;28;19991;-84
2023/02/06 10:28:42;;;;;;;;;;;;;;;3.05;100.00;67110.44;5045987;28;19921;-84
2023/02/06 10:31:07;;;;;;;;;;;;;;;3.12;100.00;67123.59;5045970;28;20557;-84
2023/02/06 10:33:38;;;;;;;;;;;;;;;3.22;100.00;67129.59;5046364;28;19920;-84
2023/02/06 10:36:03;;;;;;;;;;;;;;;;;;5044586;28;19927;-83
2023/02/06 10:38:32;;;;;;;;;;;;;;;3.27;100.00;67139.94;5044196;28;19925;-84
2023/02/06 10:40:57;;;;;;;;;;;;;;;3.39;100.00;67154.06;5045800;28;20491;-83
2023/02/06 10:43:22;;;;;;;;;;;;;;;;;;5046565;28;19974;-84
2023/02/06 10:45:50;;;;;;;;;;;;;;;3.52;100.00;67170.22;5039909;28;19929;-84
2023/02/06 10:48:15;;;;;;;;;;;;;;;;;;5045474;28;19921;-84
2023/02/06 10:50:40;;;;;;;;;;;;;;;;;;5049411;28;19920;-84
2023/02/06 10:53:05;;;;;;;;;;;;;;;;;;5051066;28;19925;-83
2023/02/06 10:55:31;;;;;;;;;;;;;;;;;;5049845;28;20452;-84
2023/02/06 10:58:01;;;;;;;;;;;;;;;3.92;100.00;67212.16;5049762;28;20382;-84
2023/02/06 11:00:27;;;;;;;;;;;;;;;3.94;100.00;67205.94;5052086;28;19956;-84
2023/02/06 11:02:55;;;;;;;;;;;;;;;4.02;100.00;67217.59;5049526;28;19970;-84
2023/02/06 11:05:20;;;;;;;;;;;;;;;4.17;100.00;67233.94;5050013;28;19935;-84
2023/02/06 11:07:45;;;;;;;;;;;;;;;;;;5049506;28;19921;-84
2023/02/06 11:10:12;;;;;;;;;;;;;;;3.99;100.00;67211.56;5050227;28;19964;-84
2023/02/06 11:12:37;;;;;;;;;;;;;;;;;;5048784;28;19928;-84
2023/02/06 11:15:03;;;;;;;;;;;;;;;;;;5049326;28;19921;-84
2023/02/06 11:17:29;;;;;;;;;;;;;;;4.32;100.00;67256.16;5052133;28;19925;-84
2023/02/06 11:20:00;;;;;;;;;;;;;;;4.47;100.00;67273.09;5053193;28;19932;-85
2023/02/06 11:22:28;;;;;;;;;;;;;;;4.56;100.00;67276.84;5052514;28;19932;-84
2023/02/06 11:25:00;;;;;;;;;;;;;;;4.45;100.00;67265.00;5053905;28;19932;-83
2023/02/06 11:27:26;;;;;;;;;;;;;;;;;;5056039;28;20016;-84
2023/02/06 11:29:51;;;;;;;;;;;;;;;;;;5058553;28;19967;-84
2023/02/06 11:32:35;;;;;;;;;;;;;;;4.60;100.00;67281.91;5059866;28;20003;-83
2023/02/06 11:35:00;;;;;;;;;;;;;;;;;;5051215;28;20024;-82
2023/02/06 11:37:25;;;;;;;;;;;;;;;;;;5057158;28;20027;-83
2023/02/06 11:39:50;;;;;;;;;;;;;;;4.79;100.00;67302.25;5054485;28;20282;-82
2023/02/06 11:42:15;;;;;;;;;;;;;;;;;;5056401;28;19921;-84
2023/02/06 11:44:40;;;;;;;;;;;;;;;;;;5055322;28;19920;-83
2023/02/06 11:47:25;;;;;;;;;;;;;;;4.86;100.00;67310.16;5055538;28;19984;-83
2023/02/06 11:49:50;;;;;;;;;;;;;;;4.99;100.00;67324.84;5055658;28;20501;-83
2023/02/06 11:52:15;;;;;;;;;;;;;;;;;;5057360;28;19964;-83
2023/02/06 11:54:52;;;;;;;;;;;;;;;5.13;100.00;67345.94;5056351;28;20313;-82
2023/02/06 11:57:17;;;;;;;;;;;;;;;5.21;100.00;67354.41;5057841;28;19920;-83
2023/02/06 11:59:42;;;;;;;;;;;;;;;;;;5055395;28;20385;-83
2023/02/06 12:02:07;;;;;;;;;;;;;;;;;;5057492;28;20320;-83
2023/02/06 12:04:36;;;;;;;;;;;;;;;5.35;100.00;67361.72;5057233;28;19921;-83
2023/02/06 12:07:09;;;;;;;;;;;;;;;5.44;100.00;67379.81;5054878;28;19921;-83
2023/02/06 12:09:34;;;;;;;;;;;;;;;;;;5054851;28;19986;-82
2023/02/06 12:11:59;;;;;;;;;;;;;;;;;;5052395;28;19924;-83
2023/02/06 12:14:24;;;;;;;;;;;;;;;;;;5056965;28;19917;-83
2023/02/06 12:16:50;;;;;;;;;;;;;;;5.52;100.00;67383.56;5056846;28;19951;-82
2023/02/06 12:19:25;;;;;;;;;;;;;;;5.52;100.00;67388.84;5053588;28;19943;-83
2023/02/06 12:21:53;;;;;;;;;;;;;;;5.40;100.00;67370.56;5055980;28;19971;-83
2023/02/06 12:24:34;;;;;;;;;;;;;;;5.32;100.00;67360.97;5057387;28;19921;-82
2023/02/06 12:26:59;;;;;;;;;;;;;;;;;;5050907;28;19921;-83
2023/02/06 12:29:29;;;;;;;;;;;;;;;5.48;100.00;67379.06;5051499;28;20091;-84
2023/02/06 12:32:17;;;;;;;;;;;;;;;5.44;100.00;67379.81;5054361;28;19996;-82
2023/02/06 12:34:52;;;;;;;;;;;;;;;5.43;100.00;67373.97;5030827;28;19927;-82
2023/02/06 12:37:30;;;;;;;;;;;;;;;5.42;100.00;67377.56;5054775;28;19951;-82
2023/02/06 12:39:55;;;;;;;;;;;;;;;;;;5051275;28;19929;-84
2023/02/06 12:42:32;;;;;;;;;;;;;;;5.48;100.00;67379.06;5058362;28;19932;-83
2023/02/06 12:45:16;;;;;;;;;;;;;;;5.45;100.00;67375.66;5061944;28;19909;-82
2023/02/06 12:47:41;;;;;;;;;;;;;;;;;;5065672;28;20575;-82
2023/02/06 12:50:09;;;;;;;;;;;;;;;5.47;100.00;67377.94;5066660;28;20125;-82
2023/02/06 12:52:34;;;;;;;;;;;;;;;5.49;100.00;67376.97;5058047;28;19917;-83
2023/02/06 12:54:59;;;;;;;;;;;;;;;;;;5050782;28;19966;-82
2023/02/06 12:57:25;;;;;;;;;;;;;;;;;;5048655;28;20591;-83
2023/02/06 12:59:50;;;;;;;;;;;;;;;5.49;100.00;67380.19;5050954;28;19956;-83
2023/02/06 13:02:22;;;;;;;;;;;;;;;5.50;100.00;67378.13;5049639;28;20339;-82
2023/02/06 13:04:49;;;;;;;;;;;;;;;5.51;100.00;67387.16;5039332;28;19921;-82
2023/02/06 13:07:16;;;;;;;;;;;;;;;5.48;100.00;67378.50;5049517;28;19917;-83
2023/02/06 13:09:53;;;;;;;;;;;;;;;5.48;100.00;67378.50;5041776;28;19940;-82
2023/02/06 13:12:18;;;;;;;;;;;;;;;;;;5047222;28;19928;-82
2023/02/06 13:14:45;;;;;;;;;;;;;;;5.46;100.00;67374.16;5044502;28;20592;-82
2023/02/06 13:17:16;;;;;;;;;;;;;;;5.49;100.00;67380.19;5043915;28;19936;-82
2023/02/06 13:19:41;;;;;;;;;;;;;;;5.53;100.00;67382.06;5044880;28;19925;-82
2023/02/06 13:22:07;;;;;;;;;;;;;;;;;;5048104;28;19981;-82
2023/02/06 13:24:32;;;;;;;;;;;;;;;;;;5049597;28;19924;-83
2023/02/06 13:26:57;;;;;;;;;;;;;;;;;;5047421;28;19963;-82